createdAt,value
2023-10-17T00:01:36.062Z,98516.81
2023-10-17T00:04:28.049Z,98513.80
2023-10-17T00:07:04.289Z,98514.59
2023-10-17T00:09:38.091Z,98514.63
2023-10-17T00:12:15.542Z,98517.51
2023-10-17T00:14:55.258Z,98515.69
2023-10-17T00:17:22.924Z,98512.86
2023-10-17T00:19:53.140Z,98514.63
2023-10-17T00:22:20.523Z,98511.34
2023-10-17T00:24:53.086Z,98514.52
2023-10-17T00:27:20.524Z,98516.01
2023-10-17T00:29:47.717Z,98514.24
2023-10-17T00:32:16.150Z,98511.74
2023-10-17T00:34:45.188Z,98512.73
2023-10-17T00:37:12.880Z,98511.51
2023-10-17T00:39:40.439Z,98515.19
2023-10-17T00:42:09.566Z,98518.79
2023-10-17T00:44:38.415Z,98519.99
2023-10-17T00:47:08.151Z,98523.30
2023-10-17T00:49:42.733Z,98522.06
2023-10-17T00:52:20.461Z,98521.77
2023-10-17T00:54:48.841Z,98521.55
2023-10-17T00:57:16.848Z,98519.60
2023-10-17T00:59:54.771Z,98522.31
2023-10-17T01:02:25.083Z,98524.17
2023-10-17T01:04:53.840Z,98518.44
2023-10-17T01:07:36.041Z,98516.34
2023-10-17T01:10:15.676Z,98518.20
2023-10-17T01:12:54.396Z,98523.09
2023-10-17T01:15:29.935Z,98520.34
2023-10-17T01:18:07.289Z,98520.83
2023-10-17T01:20:36.732Z,98519.27
2023-10-17T01:23:05.639Z,98515.63
2023-10-17T01:25:36.916Z,98518.79
2023-10-17T01:28:07.508Z,98518.85
2023-10-17T01:30:34.832Z,98520.36
2023-10-17T01:33:02.122Z,98522.39
2023-10-17T01:35:29.582Z,98526.20
2023-10-17T01:37:57.245Z,98532.91
2023-10-17T01:40:25.096Z,98532.43
2023-10-17T01:42:53.498Z,98535.00
2023-10-17T01:45:28.258Z,98539.30
2023-10-17T01:47:55.746Z,98540.11
2023-10-17T01:50:25.807Z,98537.45
2023-10-17T01:52:59.751Z,98535.50
2023-10-17T01:55:29.755Z,98533.57
2023-10-17T01:58:01.383Z,98537.27
2023-10-17T02:00:37.661Z,98538.96
2023-10-17T02:03:07.136Z,98541.29
2023-10-17T02:05:37.804Z,98543.45
2023-10-17T02:08:06.744Z,98544.38
2023-10-17T02:10:35.083Z,98541.65
2023-10-17T02:13:05.857Z,98543.10
2023-10-17T02:15:33.216Z,98542.63
2023-10-17T02:18:05.442Z,98545.50
2023-10-17T02:20:35.980Z,98551.92
2023-10-17T02:23:20.539Z,98553.80
2023-10-17T02:25:47.896Z,98556.72
2023-10-17T02:28:15.037Z,98555.78
2023-10-17T02:30:42.196Z,98558.71
2023-10-17T02:33:15.335Z,98558.30
2023-10-17T02:35:55.026Z,98557.31
2023-10-17T02:38:22.493Z,98559.13
2023-10-17T02:40:54.656Z,98563.02
2023-10-17T02:43:21.812Z,98559.53
2023-10-17T02:45:50.940Z,98560.77
2023-10-17T02:48:28.052Z,98563.78
2023-10-17T02:51:02.490Z,98564.73
2023-10-17T02:53:31.601Z,98564.33
2023-10-17T02:56:00.571Z,98566.02
2023-10-17T02:58:27.663Z,98567.85
2023-10-17T03:00:55.126Z,98566.19
2023-10-17T03:03:23.766Z,98565.23
2023-10-17T03:05:54.980Z,98565.66
2023-10-17T03:08:22.599Z,98562.60
2023-10-17T03:10:57.154Z,98570.12
2023-10-17T03:13:35.203Z,98573.13
2023-10-17T03:16:15.656Z,98580.31
2023-10-17T03:18:43.248Z,98584.91
2023-10-17T03:21:10.573Z,98584.82
2023-10-17T03:23:39.337Z,98586.63
2023-10-17T03:26:06.490Z,98587.26
2023-10-17T03:28:34.898Z,98587.30
2023-10-17T03:31:11.885Z,98585.33
2023-10-17T03:33:43.947Z,98583.59
2023-10-17T03:36:31.300Z,98585.54
2023-10-17T03:39:18.565Z,98582.45
2023-10-17T03:41:46.739Z,98583.80
2023-10-17T03:44:19.603Z,98586.16
2023-10-17T03:46:49.924Z,98590.04
2023-10-17T03:49:19.892Z,98588.38
2023-10-17T03:51:56.964Z,98586.89
2023-10-17T03:54:24.531Z,98586.05
2023-10-17T03:56:57.720Z,98580.12
2023-10-17T03:59:40.483Z,98578.46
2023-10-17T04:02:20.645Z,98578.60
2023-10-17T04:04:57.387Z,98573.43
2023-10-17T04:07:28.558Z,98573.73
2023-10-17T04:10:01.767Z,98577.39
2023-10-17T04:12:49.679Z,98576.55
2023-10-17T04:15:20.602Z,98574.13
2023-10-17T04:17:48.010Z,98576.28
2023-10-17T04:20:18.033Z,98572.14
2023-10-17T04:22:45.280Z,98573.81
2023-10-17T04:25:35.391Z,98575.73
2023-10-17T04:28:03.132Z,98571.17
2023-10-17T04:30:47.890Z,98571.86
2023-10-17T04:33:15.580Z,98568.80
2023-10-17T04:35:48.820Z,98563.29
2023-10-17T04:38:28.630Z,98560.84
2023-10-17T04:41:04.011Z,98562.26
2023-10-17T04:43:49.893Z,98560.73
2023-10-17T04:46:18.662Z,98563.98
2023-10-17T04:48:48.817Z,98564.95
2023-10-17T04:51:18.587Z,98565.13
2023-10-17T04:53:52.036Z,98563.48
2023-10-17T04:56:24.320Z,98562.88
2023-10-17T04:58:57.798Z,98567.82
2023-10-17T05:01:38.234Z,98569.94
2023-10-17T05:04:17.074Z,98575.43
2023-10-17T05:07:07.671Z,98576.11
2023-10-17T05:09:37.702Z,98579.23
2023-10-17T05:12:24.045Z,98580.48
2023-10-17T05:15:09.812Z,98580.45
2023-10-17T05:17:55.761Z,98577.13
2023-10-17T05:20:52.358Z,98582.13
2023-10-17T05:23:38.145Z,98587.18
2023-10-17T05:26:27.822Z,98589.19
2023-10-17T05:29:13.807Z,98591.96
2023-10-17T05:32:13.177Z,98596.41
2023-10-17T05:34:59.788Z,98600.46
2023-10-17T05:37:47.045Z,98598.77
2023-10-17T05:40:32.931Z,98602.45
2023-10-17T05:43:18.445Z,98608.14
2023-10-17T05:46:33.472Z,98608.30
2023-10-17T05:49:19.583Z,98604.17
2023-10-17T05:52:05.212Z,98606.96
2023-10-17T05:57:39.911Z,98607.33
2023-10-17T06:00:26.156Z,98609.79
2023-10-17T06:03:11.905Z,98612.23
2023-10-17T06:06:05.030Z,98620.86
2023-10-17T06:08:50.887Z,98618.12
2023-10-17T06:11:36.871Z,98619.28
2023-10-17T06:14:42.403Z,98616.28
2023-10-17T06:17:23.739Z,98609.30
2023-10-17T06:19:51.300Z,98609.26
2023-10-17T06:22:21.061Z,98611.58
2023-10-17T06:24:48.536Z,98610.52
2023-10-17T06:27:36.266Z,98606.58
2023-10-17T06:30:23.002Z,98595.71
2023-10-17T06:32:50.241Z,98601.06
2023-10-17T06:35:24.671Z,98602.03
2023-10-17T06:37:53.223Z,98601.27
2023-10-17T06:40:31.420Z,98607.23
2023-10-17T06:43:01.952Z,98609.40
2023-10-17T06:45:33.921Z,98609.85
2023-10-17T06:48:09.218Z,98609.63
2023-10-17T06:50:55.368Z,98613.04
2023-10-17T06:53:29.150Z,98610.37
2023-10-17T06:56:05.637Z,98610.94
2023-10-17T06:58:34.314Z,98609.05
2023-10-17T07:01:03.046Z,98609.16
2023-10-17T07:03:36.168Z,98612.64
2023-10-17T07:06:14.672Z,98612.26
2023-10-17T07:08:42.846Z,98610.48
2023-10-17T07:11:28.460Z,98608.81
2023-10-17T07:14:23.359Z,98607.86
2023-10-17T07:16:50.809Z,98609.58
2023-10-17T07:19:27.335Z,98610.91
2023-10-17T07:22:02.550Z,98608.59
2023-10-17T07:24:36.012Z,98603.95
2023-10-17T07:27:20.778Z,98603.60
2023-10-17T07:30:00.027Z,98599.98
2023-10-17T07:32:34.843Z,98599.55
2023-10-17T07:35:06.414Z,98600.50
2023-10-17T07:37:49.642Z,98592.36
2023-10-17T07:40:16.877Z,98594.53
2023-10-17T07:42:47.217Z,98593.55
2023-10-17T07:45:15.981Z,98594.21
2023-10-17T07:47:44.710Z,98596.84
2023-10-17T07:50:15.646Z,98596.89
2023-10-17T07:52:49.118Z,98596.48
2023-10-17T07:55:19.954Z,98597.11
2023-10-17T07:57:53.044Z,98599.02
2023-10-17T08:00:31.253Z,98603.16
2023-10-17T08:03:08.935Z,98602.89
2023-10-17T08:05:39.162Z,98602.94
2023-10-17T08:08:10.111Z,98604.60
2023-10-17T08:10:37.300Z,98605.60
2023-10-17T08:13:05.182Z,98606.24
2023-10-17T08:15:40.087Z,98607.56
2023-10-17T08:18:16.406Z,98604.61
2023-10-17T08:21:03.471Z,98599.97
2023-10-17T08:23:31.645Z,98603.89
2023-10-17T08:26:02.585Z,98602.36
2023-10-17T08:28:48.100Z,98603.36
2023-10-17T08:31:26.000Z,98602.27
2023-10-17T08:34:03.360Z,98604.31
2023-10-17T08:36:44.570Z,98604.09
2023-10-17T08:39:31.720Z,98604.55
2023-10-17T08:42:07.705Z,98607.09
2023-10-17T08:44:40.710Z,98603.27
2023-10-17T08:47:28.324Z,98599.95
2023-10-17T08:49:56.041Z,98602.84
2023-10-17T08:52:25.979Z,98595.33
2023-10-17T08:54:53.318Z,98593.98
2023-10-17T08:57:25.014Z,98595.90
2023-10-17T08:59:52.402Z,98589.23
2023-10-17T09:02:25.916Z,98594.88
2023-10-17T09:04:53.625Z,98599.27
2023-10-17T09:07:33.967Z,98604.05
2023-10-17T09:10:08.900Z,98605.73
2023-10-17T09:12:44.537Z,98608.56
2023-10-17T09:15:28.904Z,98602.94
2023-10-17T09:18:09.782Z,98599.25
2023-10-17T09:20:38.933Z,98596.44
2023-10-17T09:23:23.205Z,98598.70
2023-10-17T09:26:09.208Z,98594.16
2023-10-17T09:28:37.369Z,98593.95
2023-10-17T09:31:13.971Z,98590.80
2023-10-17T09:33:46.311Z,98587.67
2023-10-17T09:36:19.148Z,98583.98
2023-10-17T09:38:48.315Z,98579.99
2023-10-17T09:41:20.201Z,98579.73
2023-10-17T09:43:55.507Z,98584.86
2023-10-17T09:46:31.073Z,98582.95
2023-10-17T09:49:01.915Z,98585.91
2023-10-17T09:51:35.305Z,98584.02
2023-10-17T09:54:06.127Z,98578.33
2023-10-17T09:56:42.589Z,98572.51
2023-10-17T09:59:23.146Z,98568.80
2023-10-17T10:01:52.070Z,98568.12
2023-10-17T10:04:21.183Z,98565.77
2023-10-17T10:06:49.558Z,98563.06
2023-10-17T10:09:17.529Z,98559.82
2023-10-17T10:11:53.515Z,98559.59
2023-10-17T10:14:29.609Z,98558.88
2023-10-17T10:17:07.313Z,98551.64
2023-10-17T10:19:43.663Z,98552.89
2023-10-17T10:22:12.596Z,98549.82
2023-10-17T10:24:41.384Z,98543.27
2023-10-17T10:27:21.013Z,98538.93
2023-10-17T10:29:54.130Z,98541.48
2023-10-17T10:32:27.385Z,98541.87
2023-10-17T10:34:55.050Z,98535.00
2023-10-17T10:37:23.446Z,98534.91
2023-10-17T10:40:10.462Z,98528.30
2023-10-17T10:42:52.106Z,98525.48
2023-10-17T10:45:56.863Z,98526.83
2023-10-17T10:48:24.389Z,98523.27
2023-10-17T10:51:01.610Z,98523.90
2023-10-17T10:53:31.178Z,98522.55
2023-10-17T10:56:03.659Z,98521.11
2023-10-17T10:58:34.874Z,98515.86
2023-10-17T11:01:04.585Z,98514.11
2023-10-17T11:03:34.473Z,98515.84
2023-10-17T11:06:06.119Z,98515.54
2023-10-17T11:08:48.458Z,98514.10
2023-10-17T11:11:18.233Z,98509.29
2023-10-17T11:13:50.196Z,98510.09
2023-10-17T11:16:22.665Z,98507.20
2023-10-17T11:18:50.415Z,98507.92
2023-10-17T11:21:24.024Z,98512.03
2023-10-17T11:23:56.724Z,98511.60
2023-10-17T11:26:28.774Z,98516.03
2023-10-17T11:28:57.945Z,98517.05
2023-10-17T11:31:26.645Z,98514.09
2023-10-17T11:34:06.138Z,98520.69
2023-10-17T11:36:56.413Z,98521.44
2023-10-17T11:39:28.006Z,98515.50
2023-10-17T11:41:56.049Z,98511.25
2023-10-17T11:44:25.725Z,98510.98
2023-10-17T11:46:57.354Z,98513.11
2023-10-17T11:49:28.714Z,98510.23
2023-10-17T11:52:02.867Z,98506.70
2023-10-17T11:54:34.281Z,98501.64
2023-10-17T11:57:16.277Z,98495.09
2023-10-17T11:59:57.499Z,98500.91
2023-10-17T12:02:25.604Z,98501.89
2023-10-17T12:04:54.611Z,98500.42
2023-10-17T12:07:22.950Z,98495.17
2023-10-17T12:09:53.881Z,98498.59
2023-10-17T12:12:21.294Z,98490.05
2023-10-17T12:14:49.063Z,98488.58
2023-10-17T12:17:20.957Z,98488.11
2023-10-17T12:19:48.715Z,98489.41
2023-10-17T12:22:16.134Z,98492.90
2023-10-17T12:24:44.307Z,98488.11
2023-10-17T12:27:14.060Z,98493.37
2023-10-17T12:29:42.286Z,98487.98
2023-10-17T12:32:13.205Z,98485.21
2023-10-17T12:34:43.871Z,98478.29
2023-10-17T12:37:13.176Z,98473.23
2023-10-17T12:39:44.317Z,98470.55
2023-10-17T12:42:15.633Z,98471.55
2023-10-17T12:44:42.815Z,98465.95
2023-10-17T12:47:09.981Z,98465.23
2023-10-17T12:49:38.728Z,98462.09
2023-10-17T12:52:06.641Z,98459.52
2023-10-17T12:54:34.230Z,98453.80
2023-10-17T12:57:01.456Z,98452.36
2023-10-17T12:59:28.560Z,98448.41
2023-10-17T13:01:56.287Z,98444.40
2023-10-17T13:04:25.444Z,98441.02
2023-10-17T13:06:55.032Z,98435.71
2023-10-17T13:09:24.304Z,98438.45
2023-10-17T13:11:51.553Z,98434.64
2023-10-17T13:14:18.911Z,98438.77
2023-10-17T13:16:47.244Z,98435.14
2023-10-17T13:19:18.133Z,98437.27
2023-10-17T13:21:47.018Z,98434.82
2023-10-17T13:24:16.093Z,98434.21
2023-10-17T13:26:45.441Z,98431.77
2023-10-17T13:29:14.083Z,98428.80
2023-10-17T13:31:41.372Z,98429.61
2023-10-17T13:34:08.851Z,98426.73
2023-10-17T13:36:36.126Z,98422.74
2023-10-17T13:39:06.079Z,98423.23
2023-10-17T13:41:33.300Z,98422.25
2023-10-17T13:44:00.548Z,98414.82
2023-10-17T13:46:27.804Z,98411.38
2023-10-17T13:48:55.299Z,98411.96
2023-10-17T13:51:22.972Z,98408.94
2023-10-17T13:53:51.706Z,98405.65
2023-10-17T13:56:22.952Z,98405.26
2023-10-17T13:58:51.019Z,98402.23
2023-10-17T14:01:34.191Z,98404.17
2023-10-17T14:04:03.555Z,98400.09
2023-10-17T14:06:39.884Z,98402.41
2023-10-17T14:09:19.025Z,98404.42
2023-10-17T14:11:49.610Z,98402.48
2023-10-17T14:14:17.144Z,98404.41
2023-10-17T14:16:45.281Z,98408.61
2023-10-17T14:19:30.241Z,98403.65
2023-10-17T14:22:12.293Z,98405.59
2023-10-17T14:24:55.687Z,98402.84
2023-10-17T14:27:24.602Z,98403.63
2023-10-17T14:29:52.949Z,98400.27
2023-10-17T14:32:22.193Z,98402.02
2023-10-17T14:35:04.603Z,98406.92
2023-10-17T14:37:34.812Z,98407.33
2023-10-17T14:40:02.400Z,98401.77
2023-10-17T14:42:30.283Z,98400.77
2023-10-17T14:45:03.366Z,98401.64
2023-10-17T14:47:31.565Z,98397.81
2023-10-17T14:49:59.493Z,98398.14
2023-10-17T14:52:26.544Z,98398.13
2023-10-17T14:54:53.860Z,98398.77
2023-10-17T14:57:22.781Z,98397.80
2023-10-17T14:59:49.964Z,98395.56
2023-10-17T15:02:17.118Z,98394.18
2023-10-17T15:04:44.337Z,98391.95
2023-10-17T15:07:13.568Z,98395.12
2023-10-17T15:09:40.966Z,98394.73
2023-10-17T15:12:10.368Z,98390.46
2023-10-17T15:14:37.690Z,98390.06
2023-10-17T15:17:06.581Z,98396.26
2023-10-17T15:19:34.685Z,98399.11
2023-10-17T15:22:05.299Z,98400.39
2023-10-17T15:24:32.686Z,98399.94
2023-10-17T15:27:00.283Z,98403.82
2023-10-17T15:29:29.094Z,98404.28
2023-10-17T15:31:56.991Z,98407.13
2023-10-17T15:34:24.428Z,98402.39
2023-10-17T15:36:53.452Z,98396.92
2023-10-17T15:39:27.246Z,98399.52
2023-10-17T15:41:54.972Z,98397.65
2023-10-17T15:44:22.891Z,98400.75
2023-10-17T15:46:50.409Z,98396.32
2023-10-17T15:49:18.163Z,98396.42
2023-10-17T15:51:45.513Z,98401.55
2023-10-17T15:54:12.990Z,98402.06
2023-10-17T15:56:40.103Z,98399.55
2023-10-17T15:59:09.592Z,98401.23
2023-10-17T16:01:36.957Z,98404.52
2023-10-17T16:04:04.213Z,98410.23
2023-10-17T16:06:31.942Z,98412.58
2023-10-17T16:08:59.147Z,98412.51
2023-10-17T16:11:30.212Z,98418.45
2023-10-17T16:13:57.442Z,98419.20
2023-10-17T16:16:25.850Z,98411.77
2023-10-17T16:18:54.017Z,98402.85
2023-10-17T16:21:21.396Z,98399.90
2023-10-17T16:23:51.555Z,98393.70
2023-10-17T16:26:18.950Z,98393.88
2023-10-17T16:28:46.616Z,98391.36
2023-10-17T16:31:14.869Z,98397.05
2023-10-17T16:33:42.198Z,98399.40
2023-10-17T16:36:10.336Z,98397.00
2023-10-17T16:38:37.690Z,98397.20
2023-10-17T16:41:04.982Z,98399.06
2023-10-17T16:43:33.558Z,98398.73
2023-10-17T16:46:02.032Z,98399.20
2023-10-17T16:48:31.133Z,98406.30
2023-10-17T16:51:00.831Z,98411.22
2023-10-17T16:53:30.058Z,98412.04
2023-10-17T16:55:58.563Z,98408.48
2023-10-17T16:58:27.927Z,98405.67
2023-10-17T17:01:07.354Z,98402.88
2023-10-17T17:03:34.737Z,98400.64
2023-10-17T17:06:09.512Z,98403.07
2023-10-17T17:08:37.123Z,98412.95
2023-10-17T17:11:07.953Z,98419.02
2023-10-17T17:13:36.147Z,98421.36
2023-10-17T17:16:04.432Z,98418.23
2023-10-17T17:21:07.145Z,98416.60
2023-10-17T17:23:34.480Z,98408.78
2023-10-17T17:26:01.834Z,98408.06
2023-10-17T17:28:29.089Z,98402.92
2023-10-17T17:30:56.266Z,98398.84
2023-10-17T17:33:23.558Z,98396.92
2023-10-17T17:35:50.769Z,98393.75
2023-10-17T17:38:18.635Z,98395.13
2023-10-17T17:40:46.360Z,98392.34
2023-10-17T17:43:14.272Z,98390.10
2023-10-17T17:45:45.249Z,98392.93
2023-10-17T17:48:12.638Z,98393.07
2023-10-17T17:50:40.243Z,98395.03
2023-10-17T17:53:07.402Z,98398.50
2023-10-17T17:55:40.657Z,98401.25
2023-10-17T17:58:08.561Z,98402.77
2023-10-17T18:00:36.029Z,98402.41
2023-10-17T18:03:03.625Z,98406.06
2023-10-17T18:05:30.838Z,98408.34
2023-10-17T18:07:58.034Z,98411.77
2023-10-17T18:10:25.241Z,98412.51
2023-10-17T18:12:52.684Z,98412.92
2023-10-17T18:15:19.961Z,98408.38
2023-10-17T18:17:48.599Z,98406.28
2023-10-17T18:20:15.809Z,98404.20
2023-10-17T18:22:46.851Z,98404.04
2023-10-17T18:25:13.896Z,98401.88
2023-10-17T18:27:40.991Z,98402.04
2023-10-17T18:30:08.716Z,98407.13
2023-10-17T18:32:36.157Z,98405.70
2023-10-17T18:35:06.723Z,98405.23
2023-10-17T18:37:39.249Z,98403.42
2023-10-17T18:40:12.647Z,98413.45
2023-10-17T18:42:40.821Z,98418.76
2023-10-17T18:45:16.064Z,98418.58
2023-10-17T18:47:43.811Z,98414.52
2023-10-17T18:50:12.373Z,98413.91
2023-10-17T18:52:39.733Z,98416.10
2023-10-17T18:55:10.986Z,98419.19
2023-10-17T18:57:41.839Z,98415.15
2023-10-17T19:00:16.092Z,98412.20
2023-10-17T19:02:44.849Z,98416.34
2023-10-17T19:05:12.624Z,98416.60
2023-10-17T19:07:42.766Z,98420.32
2023-10-17T19:10:15.849Z,98423.20
2023-10-17T19:12:51.953Z,98424.44
2023-10-17T19:15:20.753Z,98418.95
2023-10-17T19:17:47.942Z,98413.33
2023-10-17T19:20:15.836Z,98408.52
2023-10-17T19:22:44.543Z,98408.12
2023-10-17T19:25:14.718Z,98413.23
2023-10-17T19:27:42.005Z,98411.11
2023-10-17T19:30:11.499Z,98405.08
2023-10-17T19:32:39.721Z,98403.08
2023-10-17T19:35:07.502Z,98398.66
2023-10-17T19:37:34.606Z,98401.92
2023-10-17T19:40:01.806Z,98398.41
2023-10-17T19:42:29.109Z,98398.59
2023-10-17T19:44:56.241Z,98398.45
2023-10-17T19:47:23.568Z,98398.23
2023-10-17T19:49:51.366Z,98398.99
2023-10-17T19:52:18.719Z,98401.44
2023-10-17T19:54:45.964Z,98396.02
2023-10-17T19:57:13.255Z,98396.48
2023-10-17T19:59:40.489Z,98400.74
2023-10-17T20:02:07.618Z,98397.75
2023-10-17T20:04:35.866Z,98402.26
2023-10-17T20:07:03.164Z,98404.23
2023-10-17T20:09:31.396Z,98407.71
2023-10-17T20:12:00.494Z,98414.64
2023-10-17T20:14:27.798Z,98411.78
2023-10-17T20:16:55.043Z,98409.20
2023-10-17T20:19:22.392Z,98415.80
2023-10-17T20:21:49.822Z,98414.04
2023-10-17T20:24:17.073Z,98411.39
2023-10-17T20:26:44.227Z,98409.73
2023-10-17T20:29:13.837Z,98407.67
2023-10-17T20:31:41.153Z,98402.48
2023-10-17T20:34:09.098Z,98400.19
2023-10-17T20:36:37.494Z,98403.43
2023-10-17T20:39:05.427Z,98398.55
2023-10-17T20:41:34.931Z,98397.02
2023-10-17T20:44:02.297Z,98397.71
2023-10-17T20:46:33.429Z,98395.09
2023-10-17T20:49:03.780Z,98393.15
2023-10-17T20:51:31.268Z,98387.48
2023-10-17T20:53:58.791Z,98391.26
2023-10-17T20:56:38.736Z,98393.84
2023-10-17T20:59:10.810Z,98395.76
2023-10-17T21:01:38.088Z,98393.74
2023-10-17T21:04:05.819Z,98385.38
2023-10-17T21:06:33.876Z,98377.48
2023-10-17T21:09:01.059Z,98376.59
2023-10-17T21:11:28.373Z,98373.75
2023-10-17T21:13:56.088Z,98369.00
2023-10-17T21:16:23.415Z,98375.53
2023-10-17T21:18:50.746Z,98373.71
2023-10-17T21:21:17.982Z,98373.23
2023-10-17T21:23:45.519Z,98366.63
2023-10-17T21:26:14.097Z,98365.41
2023-10-17T21:28:41.965Z,98365.05
2023-10-17T21:31:09.606Z,98360.57
2023-10-17T21:33:37.266Z,98360.88
2023-10-17T21:36:06.056Z,98355.64
2023-10-17T21:38:33.268Z,98360.55
2023-10-17T21:41:03.268Z,98357.13
2023-10-17T21:43:40.084Z,98354.39
2023-10-17T21:46:08.899Z,98352.28
2023-10-17T21:48:36.537Z,98351.34
2023-10-17T21:51:10.270Z,98350.01
2023-10-17T21:53:40.784Z,98348.26
2023-10-17T21:56:08.883Z,98348.63
2023-10-17T21:58:37.956Z,98349.45
2023-10-17T22:01:06.540Z,98349.10
2023-10-17T22:03:34.570Z,98348.60
2023-10-17T22:06:07.996Z,98348.85
2023-10-17T22:08:38.831Z,98347.17
2023-10-17T22:11:20.289Z,98340.55
2023-10-17T22:13:52.249Z,98345.06
2023-10-17T22:16:23.176Z,98344.10
2023-10-17T22:18:50.881Z,98343.14
2023-10-17T22:21:21.340Z,98342.98
2023-10-17T22:23:49.538Z,98347.40
2023-10-17T22:26:17.076Z,98346.14
2023-10-17T22:28:44.317Z,98346.02
2023-10-17T22:31:11.745Z,98349.85
2023-10-17T22:33:39.962Z,98355.70
2023-10-17T22:36:09.381Z,98355.88
2023-10-17T22:38:37.762Z,98357.21
2023-10-17T22:41:05.831Z,98354.98
2023-10-17T22:43:33.376Z,98347.81
2023-10-17T22:46:06.126Z,98339.54
2023-10-17T22:48:34.257Z,98335.04
2023-10-17T22:51:02.472Z,98339.11
2023-10-17T22:53:29.889Z,98338.86
2023-10-17T22:55:57.140Z,98332.50
2023-10-17T22:58:25.426Z,98331.70
2023-10-17T23:00:53.104Z,98326.80
2023-10-17T23:03:20.651Z,98328.08
2023-10-17T23:05:47.907Z,98326.27
2023-10-17T23:08:15.067Z,98327.86
2023-10-17T23:10:42.222Z,98327.66
2023-10-17T23:13:18.713Z,98328.25
2023-10-17T23:15:58.001Z,98337.88
2023-10-17T23:18:40.034Z,98334.92
2023-10-17T23:21:20.121Z,98333.43
2023-10-17T23:24:01.317Z,98332.81
2023-10-17T23:26:42.329Z,98336.34
2023-10-17T23:29:24.675Z,98336.71
2023-10-17T23:32:02.435Z,98338.30
2023-10-17T23:34:43.082Z,98337.05
2023-10-17T23:37:22.783Z,98338.60
2023-10-17T23:40:02.139Z,98337.91
2023-10-17T23:42:42.478Z,98339.57
2023-10-17T23:45:24.908Z,98350.19
2023-10-17T23:48:07.857Z,98354.05
2023-10-17T23:50:39.482Z,98352.27
2023-10-17T23:53:10.729Z,98347.83
2023-10-17T23:55:37.884Z,98348.69
2023-10-17T23:58:05.271Z,98347.30
